Islamorada, FL (33036)

3:25 PM EDT on April 25, 2017 (GMT -0400)
Tavernier | | Change Station

Elev 23 ft 25.00 °N, 80.54 °W | Updated 7 seconds ago

Clear
Clear
81.1 °F
Feels Like 82 °F
N
4.9
Wind Variable Wind from SSW
Gusts 7.4 mph

Today
High -- | Low -- °F
--% Chance of Precip.
Yesterday
High -- | Low -- °F
Precip. -- in
Pressure 29.85 in
Visibility 10.0 miles
Clouds Few 5500 ft
Heat Index 82 °F
Dew Point 60 °F
Humidity 49%
Rainfall 0.00 in
Snow Depth Not available.
6:51 AM 7:49 PM
Waning Crescent, 1% visible
METAR KHST 251858Z AUTO 26011G15KT 10SM FEW055 28/15 A2985 RMK AO2 SLPNO T02840152
Pressure 29.85 in
Visibility 10.0 miles
Clouds Few 5500 ft
Heat Index 82 °F
Dew Point 60 °F
Humidity 49%
Rainfall 0.00 in
Snow Depth Not available.
6:51 AM 7:49 PM
Waning Crescent, 1% visible
METAR KHST 251858Z AUTO 26011G15KT 10SM FEW055 28/15 A2985 RMK AO2 SLPNO T02840152

Get Severe Weather Alerts

Thanks for signing up!

Be on the lookout for a verification email in your inbox.

You'll start receiving the daily forecast at 8 AM.

×

10-Day Weather Forecast

Almanac

Astronomy

Apr. 25, 2017 Rise Set
Actual Time
Civil Twilight
Nautical Twilight
Astronomical Twilight
Moon
Length of Visible Light
Length of Day
Tomorrow will be .
, % of the Moon is Illuminated

Today's Extremes

State Highs State Lows

Community

WunderPhotos

WunderBlog® & News

Nearby

Air Quality

  Air Quality AQ Index Pollutant
Not available.

Snow Depth

Station Depth Elevation

Earthquake Activity

City Distance Mag. Time & Date
Minimum magnitude displayed is 2.5.

Coastal Water Temperatures

Place Temperature

Stations

Nearby Weather Stations

Station Location Temp. Windchill Dew Point Humidity Wind Precip. Elev Updated Type
                   

Watches & Warnings

There are currently no watches in effect.